createdAt,value
2022-09-17T00:00:57.509Z,0.00
2022-09-17T00:02:15.520Z,0.00
2022-09-17T00:03:33.357Z,0.00
2022-09-17T00:04:50.078Z,0.00
2022-09-17T00:06:07.950Z,0.00
2022-09-17T00:07:25.769Z,0.00
2022-09-17T00:08:43.609Z,0.00
2022-09-17T00:09:59.998Z,0.00
2022-09-17T00:11:18.108Z,0.00
2022-09-17T00:12:35.968Z,0.00
2022-09-17T00:13:53.832Z,0.00
2022-09-17T00:15:11.652Z,0.00
2022-09-17T00:16:29.586Z,0.00
2022-09-17T00:17:46.240Z,0.00
2022-09-17T00:19:04.411Z,0.00
2022-09-17T00:20:20.804Z,0.00
2022-09-17T00:21:38.636Z,0.00
2022-09-17T00:22:55.022Z,0.00
2022-09-17T00:24:11.431Z,0.00
2022-09-17T00:25:29.272Z,0.00
2022-09-17T00:26:47.154Z,0.00
2022-09-17T00:28:04.992Z,0.00
2022-09-17T00:29:23.126Z,0.00
2022-09-17T00:30:39.533Z,0.00
2022-09-17T00:31:55.907Z,0.00
2022-09-17T00:33:12.305Z,0.00
2022-09-17T00:34:28.725Z,0.00
2022-09-17T00:35:45.396Z,0.00
2022-09-17T00:37:01.780Z,0.00
2022-09-17T00:38:19.634Z,0.00
2022-09-17T00:39:36.076Z,0.00
2022-09-17T00:40:52.480Z,0.00
2022-09-17T00:42:09.160Z,0.00
2022-09-17T00:43:25.575Z,0.00
2022-09-17T00:44:43.452Z,0.00
2022-09-17T00:45:59.877Z,0.00
2022-09-17T00:47:16.262Z,0.00
2022-09-17T00:48:34.167Z,0.00
2022-09-17T00:49:50.547Z,0.00
2022-09-17T00:51:06.947Z,0.00
2022-09-17T00:52:24.844Z,0.00
2022-09-17T00:53:41.548Z,0.00
2022-09-17T00:54:58.039Z,0.00
2022-09-17T00:56:14.479Z,0.00
2022-09-17T00:57:32.352Z,0.00
2022-09-17T00:58:48.749Z,0.00
2022-09-17T01:00:05.626Z,0.00
2022-09-17T01:01:22.146Z,0.00
2022-09-17T01:02:38.537Z,0.00
2022-09-17T01:03:54.911Z,0.00
2022-09-17T01:05:12.731Z,0.00
2022-09-17T01:06:29.481Z,0.00
2022-09-17T01:07:47.310Z,0.00
2022-09-17T01:09:03.703Z,0.00
2022-09-17T01:10:21.530Z,0.00
2022-09-17T01:11:37.963Z,0.00
2022-09-17T01:12:54.602Z,0.00
2022-09-17T01:14:12.482Z,0.00
2022-09-17T01:15:30.322Z,0.00
2022-09-17T01:16:46.805Z,0.00
2022-09-17T01:18:03.194Z,0.00
2022-09-17T01:19:19.873Z,0.00
2022-09-17T01:20:36.255Z,0.00
2022-09-17T01:21:54.146Z,0.00
2022-09-17T01:23:10.545Z,0.00
2022-09-17T01:24:26.954Z,0.00
2022-09-17T01:25:43.628Z,0.00
2022-09-17T01:27:00.077Z,0.00
2022-09-17T01:28:17.916Z,0.00
2022-09-17T01:29:34.306Z,0.00
2022-09-17T01:30:50.707Z,0.00
2022-09-17T01:32:08.976Z,0.00
2022-09-17T01:33:25.357Z,0.00
2022-09-17T01:34:43.197Z,0.00
2022-09-17T01:35:59.587Z,0.00
2022-09-17T01:37:16.148Z,0.00
2022-09-17T01:38:32.828Z,0.00
2022-09-17T01:39:49.281Z,0.00
2022-09-17T01:41:05.629Z,0.00
2022-09-17T01:42:22.249Z,0.00
2022-09-17T01:43:38.635Z,0.00
2022-09-17T01:44:55.302Z,0.00
2022-09-17T01:46:11.697Z,0.00
2022-09-17T01:47:29.620Z,0.00
2022-09-17T01:48:45.992Z,0.00
2022-09-17T01:50:02.395Z,0.00
2022-09-17T01:51:19.031Z,0.00
2022-09-17T01:52:35.462Z,0.00
2022-09-17T01:53:51.967Z,0.00
2022-09-17T01:55:09.852Z,0.00
2022-09-17T01:56:26.237Z,0.00
2022-09-17T01:57:44.425Z,0.00
2022-09-17T01:59:00.853Z,0.00
2022-09-17T02:00:18.774Z,0.00
2022-09-17T02:01:35.174Z,0.00
2022-09-17T02:02:51.643Z,0.00
2022-09-17T02:04:08.411Z,0.00
2022-09-17T02:05:24.851Z,0.00
2022-09-17T02:06:42.684Z,0.00
2022-09-17T02:07:59.144Z,0.00
2022-09-17T02:09:15.689Z,0.00
2022-09-17T02:10:32.375Z,0.00
2022-09-17T02:11:49.261Z,0.00
2022-09-17T02:13:05.686Z,0.00
2022-09-17T02:14:22.056Z,0.00
2022-09-17T02:15:38.447Z,0.00
2022-09-17T02:16:55.109Z,0.00
2022-09-17T02:18:11.537Z,0.00
2022-09-17T02:19:27.918Z,0.00
2022-09-17T02:20:45.769Z,0.00
2022-09-17T02:22:03.622Z,0.00
2022-09-17T02:23:20.321Z,0.00
2022-09-17T02:24:36.678Z,0.00
2022-09-17T02:25:53.078Z,0.00
2022-09-17T02:27:09.460Z,0.00
2022-09-17T02:28:25.939Z,0.00
2022-09-17T02:29:42.606Z,0.00
2022-09-17T02:30:59.057Z,0.00
2022-09-17T02:32:15.417Z,0.00
2022-09-17T02:33:31.850Z,0.00
2022-09-17T02:34:48.226Z,0.00
2022-09-17T02:36:04.904Z,0.00
2022-09-17T02:37:21.269Z,0.00
2022-09-17T02:38:37.691Z,0.00
2022-09-17T02:39:55.536Z,0.00
2022-09-17T02:41:11.912Z,0.00
2022-09-17T02:42:28.569Z,0.00
2022-09-17T02:43:44.993Z,0.00
2022-09-17T02:45:01.373Z,0.00
2022-09-17T02:46:17.827Z,0.00
2022-09-17T02:47:34.184Z,0.00
2022-09-17T02:48:50.900Z,0.00
2022-09-17T02:50:07.266Z,0.00
2022-09-17T02:51:25.116Z,0.00
2022-09-17T02:52:41.494Z,0.00
2022-09-17T02:53:57.916Z,0.00
2022-09-17T02:55:14.595Z,0.00
2022-09-17T02:56:30.995Z,0.00
2022-09-17T02:57:48.825Z,0.00
2022-09-17T02:59:05.296Z,0.00
2022-09-17T03:00:21.659Z,0.00
2022-09-17T03:01:38.356Z,0.00
2022-09-17T03:02:54.761Z,0.00
2022-09-17T03:04:11.258Z,0.00
2022-09-17T03:05:29.087Z,0.00
2022-09-17T03:06:45.478Z,0.00
2022-09-17T03:08:02.123Z,0.00
2022-09-17T03:09:18.559Z,0.00
2022-09-17T03:10:34.941Z,0.00
2022-09-17T03:11:51.350Z,0.00
2022-09-17T03:13:09.181Z,0.00
2022-09-17T03:14:25.907Z,0.00
2022-09-17T03:15:43.862Z,0.00
2022-09-17T03:17:00.269Z,0.00
2022-09-17T03:18:18.099Z,0.00
2022-09-17T03:19:34.512Z,0.00
2022-09-17T03:20:51.164Z,0.00
2022-09-17T03:22:07.552Z,0.00
2022-09-17T03:23:25.381Z,0.00
2022-09-17T03:24:41.827Z,0.00
2022-09-17T03:25:58.211Z,0.00
2022-09-17T03:27:14.959Z,0.00
2022-09-17T03:28:32.757Z,0.00
2022-09-17T03:29:49.183Z,0.00
2022-09-17T03:31:07.069Z,0.00
2022-09-17T03:32:23.442Z,0.00
2022-09-17T03:33:41.583Z,0.00
2022-09-17T03:34:57.975Z,0.00
2022-09-17T03:36:15.826Z,0.00
2022-09-17T03:37:33.660Z,0.00
2022-09-17T03:38:51.524Z,0.00
2022-09-17T03:40:08.286Z,0.00
2022-09-17T03:41:26.152Z,0.00
2022-09-17T03:42:43.997Z,0.00
2022-09-17T03:44:01.856Z,0.00
2022-09-17T03:45:19.706Z,0.00
2022-09-17T03:46:36.371Z,0.00
2022-09-17T03:47:52.746Z,0.00
2022-09-17T03:49:10.626Z,0.00
2022-09-17T03:50:28.447Z,0.00
2022-09-17T03:51:46.297Z,0.00
2022-09-17T03:53:02.935Z,0.00
2022-09-17T03:54:20.831Z,0.00
2022-09-17T03:55:38.660Z,0.00
2022-09-17T03:56:56.498Z,0.00
2022-09-17T03:58:12.880Z,0.00
2022-09-17T03:59:31.560Z,0.00
2022-09-17T04:00:47.920Z,0.00
2022-09-17T04:02:06.398Z,0.00
2022-09-17T04:03:24.269Z,0.00
2022-09-17T04:04:42.120Z,0.00
2022-09-17T04:06:00.230Z,0.00
2022-09-17T04:07:18.072Z,0.00
2022-09-17T04:08:35.932Z,0.00
2022-09-17T04:09:53.802Z,0.00
2022-09-17T04:11:11.629Z,0.00
2022-09-17T04:12:29.762Z,0.00
2022-09-17T04:13:47.654Z,0.00
2022-09-17T04:15:05.570Z,0.00
2022-09-17T04:16:23.464Z,0.00
2022-09-17T04:17:39.924Z,0.00
2022-09-17T04:18:56.582Z,0.00
2022-09-17T04:20:13.134Z,0.00
2022-09-17T04:21:29.524Z,0.00
2022-09-17T04:22:47.375Z,0.00
2022-09-17T04:24:05.204Z,0.00
2022-09-17T04:25:21.964Z,0.00
2022-09-17T04:26:39.810Z,0.00
2022-09-17T04:27:56.216Z,0.00
2022-09-17T04:29:14.077Z,0.00
2022-09-17T04:30:30.467Z,0.00
2022-09-17T04:31:47.209Z,0.00
2022-09-17T04:33:05.056Z,0.00
2022-09-17T04:34:21.462Z,0.00
2022-09-17T04:35:39.314Z,0.00
2022-09-17T04:36:57.127Z,0.00
2022-09-17T04:38:15.331Z,0.00
2022-09-17T04:39:32.656Z,0.00
2022-09-17T04:40:49.978Z,0.00
2022-09-17T04:42:07.843Z,0.00
2022-09-17T04:43:25.698Z,0.00
2022-09-17T04:44:43.308Z,0.00
2022-09-17T04:46:01.170Z,0.00
2022-09-17T04:47:19.012Z,0.00
2022-09-17T04:48:36.869Z,0.00
2022-09-17T04:49:54.744Z,0.00
2022-09-17T04:51:11.409Z,0.00
2022-09-17T04:52:31.101Z,0.00
2022-09-17T04:53:49.091Z,0.00
2022-09-17T04:55:06.921Z,0.00
2022-09-17T04:56:23.358Z,0.00
2022-09-17T04:57:41.525Z,0.00
2022-09-17T04:58:59.402Z,0.00
2022-09-17T05:00:17.234Z,0.00
2022-09-17T05:01:35.101Z,0.00
2022-09-17T05:02:53.003Z,0.00
2022-09-17T05:04:11.124Z,0.00
2022-09-17T05:05:28.964Z,0.00
2022-09-17T05:06:46.809Z,0.00
2022-09-17T05:08:04.683Z,0.00
2022-09-17T05:09:22.555Z,0.00
2022-09-17T05:10:39.187Z,0.00
2022-09-17T05:11:57.024Z,0.00
2022-09-17T05:13:14.912Z,0.00
2022-09-17T05:14:31.299Z,0.00
2022-09-17T05:15:47.719Z,0.00
2022-09-17T05:17:06.326Z,0.00
2022-09-17T05:18:24.233Z,0.00
2022-09-17T05:19:42.087Z,0.00
2022-09-17T05:20:58.479Z,0.00
2022-09-17T05:22:18.341Z,0.00
2022-09-17T05:23:36.165Z,0.00
2022-09-17T05:24:54.056Z,0.00
2022-09-17T05:26:11.388Z,0.00
2022-09-17T05:27:27.866Z,0.00
2022-09-17T05:28:45.748Z,5.62
2022-09-17T05:30:02.442Z,5.62
2022-09-17T05:31:20.430Z,5.62
2022-09-17T05:32:36.785Z,5.62
2022-09-17T05:33:54.619Z,5.62
2022-09-17T05:35:11.020Z,5.62
2022-09-17T05:36:29.161Z,5.62
2022-09-17T05:37:45.561Z,5.62
2022-09-17T05:39:03.722Z,5.62
2022-09-17T05:40:20.297Z,5.62
2022-09-17T05:41:38.121Z,11.25
2022-09-17T05:42:54.864Z,11.25
2022-09-17T05:44:17.336Z,11.25
2022-09-17T05:45:33.976Z,11.25
2022-09-17T05:46:51.866Z,11.25
2022-09-17T05:48:08.279Z,11.25
2022-09-17T05:49:24.943Z,11.25
2022-09-17T05:50:42.806Z,11.25
2022-09-17T05:52:00.642Z,16.88
2022-09-17T05:53:18.536Z,16.88
2022-09-17T05:54:35.959Z,16.88
2022-09-17T05:55:52.647Z,16.88
2022-09-17T05:57:10.499Z,16.88
2022-09-17T05:58:26.926Z,16.88
2022-09-17T05:59:44.782Z,16.88
2022-09-17T06:01:02.637Z,16.88
2022-09-17T06:02:20.817Z,22.50
2022-09-17T06:03:38.663Z,22.50
2022-09-17T06:04:56.499Z,22.50
2022-09-17T06:06:14.373Z,22.50
2022-09-17T06:07:32.307Z,28.12
2022-09-17T06:08:49.008Z,28.12
2022-09-17T06:10:06.809Z,33.75
2022-09-17T06:11:24.688Z,33.75
2022-09-17T06:12:41.167Z,33.75
2022-09-17T06:13:59.102Z,33.75
2022-09-17T06:15:15.839Z,33.75
2022-09-17T06:16:33.776Z,33.75
2022-09-17T06:17:51.686Z,39.38
2022-09-17T06:19:10.079Z,39.38
2022-09-17T06:20:28.032Z,39.38
2022-09-17T06:21:46.181Z,45.00
2022-09-17T06:23:04.039Z,45.00
2022-09-17T06:24:21.889Z,50.62
2022-09-17T06:25:38.265Z,56.25
2022-09-17T06:26:56.168Z,50.62
2022-09-17T06:28:14.292Z,45.00
2022-09-17T06:29:32.148Z,39.38
2022-09-17T06:30:50.072Z,39.38
2022-09-17T06:32:07.949Z,39.38
2022-09-17T06:33:25.745Z,39.38
2022-09-17T06:34:42.430Z,39.38
2022-09-17T06:36:00.266Z,39.38
2022-09-17T06:37:18.136Z,33.75
2022-09-17T06:38:34.506Z,33.75
2022-09-17T06:39:53.017Z,33.75
2022-09-17T06:41:09.727Z,33.75
2022-09-17T06:42:26.118Z,33.75
2022-09-17T06:43:43.954Z,33.75
2022-09-17T06:45:04.126Z,33.75
2022-09-17T06:46:23.334Z,33.75
2022-09-17T06:47:41.530Z,33.75
2022-09-17T06:48:59.388Z,33.75
2022-09-17T06:50:17.260Z,33.75
2022-09-17T06:51:35.700Z,33.75
2022-09-17T06:52:53.160Z,33.75
2022-09-17T06:54:11.290Z,28.12
2022-09-17T06:55:29.169Z,28.12
2022-09-17T06:56:46.992Z,28.12
2022-09-17T06:58:04.872Z,33.75
2022-09-17T06:59:22.036Z,33.75
2022-09-17T07:00:40.253Z,33.75
2022-09-17T07:01:58.105Z,33.75
2022-09-17T07:03:18.979Z,33.75
2022-09-17T07:04:38.695Z,33.75
2022-09-17T07:05:56.583Z,33.75
2022-09-17T07:07:14.678Z,33.75
2022-09-17T07:08:33.034Z,39.38
2022-09-17T07:09:50.912Z,39.38
2022-09-17T07:11:09.184Z,39.38
2022-09-17T07:12:27.010Z,45.00
2022-09-17T07:13:43.706Z,50.62
2022-09-17T07:15:01.557Z,61.88
2022-09-17T07:16:18.034Z,78.75
2022-09-17T07:17:35.846Z,84.38
2022-09-17T07:18:53.709Z,84.38
2022-09-17T07:20:10.166Z,84.38
2022-09-17T07:21:28.036Z,90.00
2022-09-17T07:22:45.881Z,78.75
2022-09-17T07:24:03.720Z,101.25
2022-09-17T07:25:21.978Z,106.88
2022-09-17T07:26:39.859Z,106.88
2022-09-17T07:27:57.751Z,112.50
2022-09-17T07:29:15.224Z,112.50
2022-09-17T07:30:33.142Z,118.12
2022-09-17T07:31:50.908Z,123.75
2022-09-17T07:33:08.722Z,135.00
2022-09-17T07:34:26.161Z,135.00
2022-09-17T07:35:43.564Z,140.62
2022-09-17T07:37:02.007Z,146.25
2022-09-17T07:38:20.622Z,151.88
2022-09-17T07:39:38.443Z,157.50
2022-09-17T07:40:56.904Z,163.12
2022-09-17T07:42:14.755Z,174.38
2022-09-17T07:43:32.597Z,180.00
2022-09-17T07:44:50.714Z,191.25
2022-09-17T07:46:08.211Z,196.88
2022-09-17T07:47:26.101Z,129.38
2022-09-17T07:48:43.942Z,106.88
2022-09-17T07:50:01.786Z,185.62
2022-09-17T07:51:19.655Z,129.38
2022-09-17T07:52:37.536Z,236.25
2022-09-17T07:53:55.387Z,253.12
2022-09-17T07:55:13.230Z,185.62
2022-09-17T07:56:30.858Z,163.12
2022-09-17T07:57:48.778Z,90.00
2022-09-17T07:59:06.600Z,78.75
2022-09-17T08:00:23.925Z,146.25
2022-09-17T08:01:43.050Z,247.50
2022-09-17T08:03:01.035Z,225.00
2022-09-17T08:04:18.940Z,247.50
2022-09-17T08:05:36.801Z,247.50
2022-09-17T08:06:54.742Z,247.50
2022-09-17T08:08:13.661Z,253.12
2022-09-17T08:09:32.587Z,258.75
2022-09-17T08:10:49.473Z,264.38
2022-09-17T08:12:07.316Z,264.38
2022-09-17T08:13:26.145Z,264.38
2022-09-17T08:14:44.573Z,264.38
2022-09-17T08:16:03.048Z,270.00
2022-09-17T08:17:20.847Z,270.00
2022-09-17T08:18:38.697Z,275.62
2022-09-17T08:19:56.846Z,275.62
2022-09-17T08:21:15.267Z,281.25
2022-09-17T08:22:33.197Z,281.25
2022-09-17T08:23:51.028Z,286.88
2022-09-17T08:25:08.899Z,286.88
2022-09-17T08:26:27.332Z,292.50
2022-09-17T08:27:47.933Z,292.50
2022-09-17T08:29:05.844Z,298.12
2022-09-17T08:30:23.711Z,298.12
2022-09-17T08:31:41.222Z,303.75
2022-09-17T08:32:59.873Z,309.38
2022-09-17T08:34:18.259Z,174.38
2022-09-17T08:35:36.162Z,253.12
2022-09-17T08:36:53.513Z,135.00
2022-09-17T08:38:11.353Z,337.50
2022-09-17T08:39:29.605Z,67.50
2022-09-17T08:40:47.205Z,331.88
2022-09-17T08:42:05.112Z,331.88
2022-09-17T08:43:25.645Z,337.50
2022-09-17T08:44:43.650Z,337.50
2022-09-17T08:46:01.786Z,337.50
2022-09-17T08:47:19.628Z,337.50
2022-09-17T08:48:37.447Z,343.12
2022-09-17T08:49:55.337Z,354.38
2022-09-17T08:51:13.190Z,354.38
2022-09-17T08:52:31.081Z,354.38
2022-09-17T08:53:49.002Z,354.38
2022-09-17T08:55:06.910Z,360.00
2022-09-17T08:56:26.563Z,365.62
2022-09-17T08:57:44.829Z,371.25
2022-09-17T08:59:01.303Z,123.75
2022-09-17T09:00:19.134Z,376.88
2022-09-17T09:01:37.035Z,236.25
2022-09-17T09:02:55.075Z,388.12
2022-09-17T09:04:13.218Z,405.00
2022-09-17T09:05:31.063Z,168.75
2022-09-17T09:06:48.893Z,101.25
2022-09-17T09:08:06.758Z,95.62
2022-09-17T09:09:23.196Z,78.75
2022-09-17T09:10:41.314Z,84.38
2022-09-17T09:11:59.171Z,303.75
2022-09-17T09:13:15.654Z,118.12
2022-09-17T09:14:32.959Z,78.75
2022-09-17T09:15:49.482Z,73.12
2022-09-17T09:17:05.985Z,73.12
2022-09-17T09:18:23.889Z,61.88
2022-09-17T09:19:41.738Z,50.62
2022-09-17T09:20:59.607Z,50.62
2022-09-17T09:22:16.329Z,292.50
2022-09-17T09:23:34.180Z,298.12
2022-09-17T09:24:50.581Z,101.25
2022-09-17T09:26:08.502Z,129.38
2022-09-17T09:27:26.361Z,185.62
2022-09-17T09:28:44.490Z,140.62
2022-09-17T09:30:02.371Z,95.62
2022-09-17T09:31:20.363Z,90.00
2022-09-17T09:32:38.247Z,90.00
2022-09-17T09:33:56.081Z,106.88
2022-09-17T09:35:12.785Z,371.25
2022-09-17T09:36:30.666Z,438.75
2022-09-17T09:37:48.526Z,421.88
2022-09-17T09:39:06.376Z,388.12
2022-09-17T09:40:22.922Z,461.25
2022-09-17T09:41:41.323Z,95.62
2022-09-17T09:42:59.249Z,168.75
2022-09-17T09:44:16.102Z,455.62
2022-09-17T09:45:34.134Z,90.00
2022-09-17T09:46:52.060Z,112.50
2022-09-17T09:48:10.218Z,450.00
2022-09-17T09:49:28.069Z,196.88
2022-09-17T09:51:05.182Z,489.38
2022-09-17T09:52:08.670Z,140.62
2022-09-17T09:53:26.570Z,112.50
2022-09-17T09:54:44.710Z,101.25
2022-09-17T09:56:02.581Z,95.62
2022-09-17T09:57:20.463Z,90.00
2022-09-17T09:58:37.803Z,135.00
2022-09-17T09:59:55.703Z,129.38
2022-09-17T10:01:13.617Z,241.88
2022-09-17T10:02:31.591Z,455.62
2022-09-17T10:03:49.526Z,416.25
2022-09-17T10:05:07.426Z,101.25
2022-09-17T10:06:25.586Z,84.38
2022-09-17T10:07:43.451Z,56.25
2022-09-17T10:09:01.296Z,56.25
2022-09-17T10:10:19.147Z,56.25
2022-09-17T10:11:36.548Z,56.25
2022-09-17T10:12:54.809Z,61.88
2022-09-17T10:14:12.678Z,95.62
2022-09-17T10:15:30.521Z,511.88
2022-09-17T10:16:51.312Z,118.12
2022-09-17T10:18:09.250Z,112.50
2022-09-17T10:19:26.075Z,196.88
2022-09-17T10:20:43.944Z,500.62
2022-09-17T10:22:01.824Z,489.38
2022-09-17T10:23:19.692Z,151.88
2022-09-17T10:24:37.585Z,118.12
2022-09-17T10:25:55.403Z,388.12
2022-09-17T10:27:15.054Z,219.38
2022-09-17T10:28:34.334Z,393.75
2022-09-17T10:29:51.486Z,540.00
2022-09-17T10:31:08.952Z,174.38
2022-09-17T10:32:27.025Z,118.12
2022-09-17T10:33:44.924Z,95.62
2022-09-17T10:35:02.826Z,84.38
2022-09-17T10:36:20.716Z,67.50
2022-09-17T10:37:38.693Z,61.88
2022-09-17T10:38:56.565Z,50.62
2022-09-17T10:40:13.947Z,50.62
2022-09-17T10:41:31.838Z,56.25
2022-09-17T10:42:49.697Z,56.25
2022-09-17T10:44:07.592Z,56.25
2022-09-17T10:45:25.769Z,56.25
2022-09-17T10:46:43.651Z,61.88
2022-09-17T10:48:00.520Z,73.12
2022-09-17T10:49:18.391Z,101.25
2022-09-17T10:50:36.261Z,303.75
2022-09-17T10:51:53.855Z,168.75
2022-09-17T10:53:11.822Z,106.88
2022-09-17T10:54:29.750Z,90.00
2022-09-17T10:55:47.089Z,90.00
2022-09-17T10:57:03.492Z,84.38
2022-09-17T10:58:21.614Z,78.75
2022-09-17T10:59:39.489Z,67.50
2022-09-17T11:00:57.339Z,50.62
2022-09-17T11:02:15.379Z,39.38
2022-09-17T11:03:33.319Z,39.38
2022-09-17T11:04:51.539Z,50.62
2022-09-17T11:06:13.700Z,50.62
2022-09-17T11:07:32.109Z,45.00
2022-09-17T11:08:49.947Z,33.75
2022-09-17T11:10:07.838Z,28.12
2022-09-17T11:11:26.010Z,22.50
2022-09-17T11:12:43.851Z,22.50
2022-09-17T11:14:01.749Z,28.12
2022-09-17T11:15:18.191Z,33.75
2022-09-17T11:16:36.086Z,61.88
2022-09-17T11:17:54.170Z,73.12
2022-09-17T11:19:12.075Z,90.00
2022-09-17T11:20:28.500Z,585.00
2022-09-17T11:21:45.950Z,590.62
2022-09-17T11:23:02.471Z,601.88
2022-09-17T11:24:19.172Z,596.25
2022-09-17T11:25:37.012Z,607.50
2022-09-17T11:26:54.914Z,596.25
2022-09-17T11:28:12.778Z,601.88
2022-09-17T11:29:29.245Z,607.50
2022-09-17T11:30:47.083Z,613.12
2022-09-17T11:32:04.988Z,618.75
2022-09-17T11:33:22.825Z,607.50
2022-09-17T11:34:39.225Z,607.50
2022-09-17T11:35:57.506Z,607.50
2022-09-17T11:37:13.999Z,607.50
2022-09-17T11:38:31.870Z,613.12
2022-09-17T11:39:49.832Z,624.38
2022-09-17T11:41:06.278Z,635.62
2022-09-17T11:42:24.460Z,455.62
2022-09-17T11:43:42.374Z,376.88
2022-09-17T11:45:00.247Z,618.75
2022-09-17T11:46:18.180Z,652.50
2022-09-17T11:47:34.681Z,585.00
2022-09-17T11:48:52.954Z,427.50
2022-09-17T11:50:09.452Z,646.88
2022-09-17T11:51:27.363Z,646.88
2022-09-17T11:52:45.292Z,405.00
2022-09-17T11:54:01.752Z,663.75
2022-09-17T11:55:18.264Z,697.50
2022-09-17T11:56:37.273Z,320.62
2022-09-17T11:57:53.744Z,478.12
2022-09-17T11:59:11.635Z,388.12
2022-09-17T12:00:29.508Z,309.38
2022-09-17T12:01:47.469Z,168.75
2022-09-17T12:03:03.970Z,101.25
2022-09-17T12:04:20.419Z,73.12
2022-09-17T12:05:38.552Z,101.25
2022-09-17T12:06:56.681Z,146.25
2022-09-17T12:08:15.011Z,106.88
2022-09-17T12:09:34.691Z,73.12
2022-09-17T12:10:52.592Z,56.25
2022-09-17T12:12:17.832Z,50.62
2022-09-17T12:13:31.813Z,39.38
2022-09-17T12:14:49.682Z,33.75
2022-09-17T12:16:07.645Z,33.75
2022-09-17T12:17:24.165Z,61.88
2022-09-17T12:18:42.112Z,658.12
2022-09-17T12:20:00.036Z,646.88
2022-09-17T12:21:17.568Z,641.25
2022-09-17T12:22:40.137Z,427.50
2022-09-17T12:23:58.277Z,354.38
2022-09-17T12:25:16.118Z,635.62
2022-09-17T12:26:33.988Z,624.38
2022-09-17T12:27:50.540Z,613.12
2022-09-17T12:29:08.799Z,601.88
2022-09-17T12:30:26.662Z,596.25
2022-09-17T12:31:44.658Z,596.25
2022-09-17T12:33:02.551Z,596.25
2022-09-17T12:34:19.045Z,596.25
2022-09-17T12:36:04.853Z,596.25
2022-09-17T12:36:59.622Z,585.00
2022-09-17T12:38:17.504Z,585.00
2022-09-17T12:39:33.949Z,573.75
2022-09-17T12:40:52.075Z,590.62
2022-09-17T12:42:09.973Z,585.00
2022-09-17T12:43:28.323Z,405.00
2022-09-17T12:44:44.756Z,579.38
2022-09-17T12:46:02.587Z,585.00
2022-09-17T12:47:20.950Z,579.38
2022-09-17T12:48:38.797Z,579.38
2022-09-17T12:49:57.479Z,568.12
2022-09-17T12:51:15.608Z,562.50
2022-09-17T12:52:33.469Z,562.50
2022-09-17T12:53:53.851Z,551.25
2022-09-17T12:55:11.730Z,545.62
2022-09-17T12:56:28.345Z,540.00
2022-09-17T12:57:45.683Z,551.25
2022-09-17T12:59:03.572Z,534.38
2022-09-17T13:00:21.753Z,545.62
2022-09-17T13:01:38.256Z,556.88
2022-09-17T13:02:55.573Z,118.12
2022-09-17T13:04:13.435Z,101.25
2022-09-17T13:05:35.825Z,90.00
2022-09-17T13:06:52.865Z,73.12
2022-09-17T13:08:10.801Z,56.25
2022-09-17T13:09:29.652Z,33.75
2022-09-17T13:10:47.558Z,22.50
2022-09-17T13:12:06.239Z,11.25
2022-09-17T13:13:24.999Z,11.25
2022-09-17T13:14:42.820Z,16.88
2022-09-17T13:16:01.187Z,16.88
2022-09-17T13:17:18.561Z,22.50
2022-09-17T13:18:36.789Z,28.12
2022-09-17T13:19:54.194Z,39.38
2022-09-17T13:21:12.712Z,39.38
2022-09-17T13:22:30.591Z,39.38
2022-09-17T13:23:48.415Z,39.38
2022-09-17T13:25:04.982Z,39.38
2022-09-17T13:26:22.826Z,45.00
2022-09-17T13:27:40.704Z,50.62
2022-09-17T13:28:58.585Z,56.25
2022-09-17T13:30:16.299Z,61.88
2022-09-17T13:31:32.855Z,67.50
2022-09-17T13:32:50.676Z,73.12
2022-09-17T13:34:08.594Z,78.75
2022-09-17T13:35:26.426Z,84.38
2022-09-17T13:36:44.550Z,106.88
2022-09-17T13:38:01.868Z,123.75
2022-09-17T13:39:19.809Z,151.88
2022-09-17T13:40:37.684Z,129.38
2022-09-17T13:41:55.525Z,146.25
2022-09-17T13:43:12.228Z,123.75
2022-09-17T13:44:30.749Z,123.75
2022-09-17T13:45:48.156Z,157.50
2022-09-17T13:47:06.021Z,185.62
2022-09-17T13:48:23.386Z,320.62
2022-09-17T13:49:41.670Z,185.62
2022-09-17T13:50:59.543Z,320.62
2022-09-17T13:52:17.401Z,410.62
2022-09-17T13:53:35.268Z,135.00
2022-09-17T13:54:53.687Z,101.25
2022-09-17T13:56:12.537Z,163.12
2022-09-17T13:57:31.121Z,337.50
2022-09-17T13:58:48.505Z,90.00
2022-09-17T14:00:06.416Z,84.38
2022-09-17T14:01:24.870Z,78.75
2022-09-17T14:02:45.335Z,78.75
2022-09-17T14:04:02.108Z,84.38
2022-09-17T14:05:20.176Z,360.00
2022-09-17T14:06:38.149Z,230.62
2022-09-17T14:07:57.025Z,354.38
2022-09-17T14:09:15.888Z,90.00
2022-09-17T14:10:33.747Z,95.62
2022-09-17T14:11:51.608Z,112.50
2022-09-17T14:13:09.493Z,157.50
2022-09-17T14:14:27.380Z,146.25
2022-09-17T14:15:45.484Z,247.50
2022-09-17T14:17:03.372Z,180.00
2022-09-17T14:18:21.391Z,95.62
2022-09-17T14:19:37.854Z,78.75
2022-09-17T14:20:55.717Z,78.75
2022-09-17T14:22:13.574Z,118.12
2022-09-17T14:23:30.943Z,298.12
2022-09-17T14:24:48.902Z,275.62
2022-09-17T14:26:06.755Z,270.00
2022-09-17T14:27:25.019Z,247.50
2022-09-17T14:28:42.955Z,236.25
2022-09-17T14:30:00.806Z,230.62
2022-09-17T14:31:18.771Z,241.88
2022-09-17T14:32:35.187Z,213.75
2022-09-17T14:33:52.258Z,219.38
2022-09-17T14:35:10.128Z,208.12
2022-09-17T14:36:29.425Z,202.50
2022-09-17T14:37:47.308Z,180.00
2022-09-17T14:39:03.867Z,157.50
2022-09-17T14:40:21.820Z,208.12
2022-09-17T14:41:39.639Z,202.50
2022-09-17T14:42:57.511Z,101.25
2022-09-17T14:44:15.430Z,90.00
2022-09-17T14:45:35.270Z,78.75
2022-09-17T14:46:51.756Z,61.88
2022-09-17T14:48:09.147Z,56.25
2022-09-17T14:49:27.102Z,45.00
2022-09-17T14:50:44.973Z,33.75
2022-09-17T14:52:01.733Z,22.50
2022-09-17T14:53:19.644Z,16.88
2022-09-17T14:54:36.755Z,11.25
2022-09-17T14:55:53.240Z,11.25
2022-09-17T14:57:11.066Z,11.25
2022-09-17T14:58:29.185Z,11.25
2022-09-17T14:59:47.147Z,11.25
2022-09-17T15:01:03.625Z,11.25
2022-09-17T15:02:21.896Z,11.25
2022-09-17T15:03:39.847Z,16.88
2022-09-17T15:04:59.048Z,16.88
2022-09-17T15:06:16.898Z,22.50
2022-09-17T15:07:34.746Z,22.50
2022-09-17T15:08:52.591Z,28.12
2022-09-17T15:10:10.982Z,39.38
2022-09-17T15:11:27.710Z,101.25
2022-09-17T15:12:44.152Z,101.25
2022-09-17T15:14:02.500Z,90.00
2022-09-17T15:15:20.390Z,95.62
2022-09-17T15:16:37.513Z,95.62
2022-09-17T15:17:55.127Z,90.00
2022-09-17T15:19:12.991Z,84.38
2022-09-17T15:20:30.852Z,78.75
2022-09-17T15:21:48.718Z,78.75
2022-09-17T15:23:06.154Z,78.75
2022-09-17T15:24:25.454Z,84.38
2022-09-17T15:25:43.373Z,67.50
2022-09-17T15:27:01.268Z,78.75
2022-09-17T15:28:19.103Z,45.00
2022-09-17T15:29:37.022Z,45.00
2022-09-17T15:30:54.965Z,45.00
2022-09-17T15:32:12.802Z,45.00
2022-09-17T15:33:30.632Z,39.38
2022-09-17T15:34:48.485Z,39.38
2022-09-17T15:36:06.220Z,33.75
2022-09-17T15:37:24.077Z,39.38
2022-09-17T15:38:41.918Z,50.62
2022-09-17T15:39:59.861Z,73.12
2022-09-17T15:41:20.715Z,78.75
2022-09-17T15:42:39.078Z,73.12
2022-09-17T15:44:13.324Z,73.12
2022-09-17T15:45:19.632Z,67.50
2022-09-17T15:46:37.574Z,61.88
2022-09-17T15:47:54.230Z,56.25
2022-09-17T15:49:12.075Z,50.62
2022-09-17T15:50:29.963Z,50.62
2022-09-17T15:51:47.795Z,45.00
2022-09-17T15:53:04.195Z,45.00
2022-09-17T15:54:21.167Z,61.88
2022-09-17T15:55:39.067Z,61.88
2022-09-17T15:56:56.909Z,56.25
2022-09-17T15:58:14.760Z,56.25
2022-09-17T15:59:32.606Z,45.00
2022-09-17T16:00:50.779Z,39.38
2022-09-17T16:02:08.711Z,45.00
2022-09-17T16:03:26.759Z,39.38
2022-09-17T16:04:44.615Z,33.75
2022-09-17T16:06:04.717Z,33.75
2022-09-17T16:07:22.977Z,33.75
2022-09-17T16:08:40.829Z,33.75
2022-09-17T16:09:57.253Z,28.12
2022-09-17T16:11:13.692Z,22.50
2022-09-17T16:12:31.811Z,22.50
2022-09-17T16:13:49.726Z,22.50
2022-09-17T16:15:07.570Z,22.50
2022-09-17T16:16:25.559Z,22.50
2022-09-17T16:17:43.404Z,22.50
2022-09-17T16:19:00.143Z,22.50
2022-09-17T16:20:18.019Z,16.88
2022-09-17T16:21:35.905Z,16.88
2022-09-17T16:22:53.742Z,16.88
2022-09-17T16:24:11.605Z,16.88
2022-09-17T16:25:29.242Z,16.88
2022-09-17T16:26:47.129Z,28.12
2022-09-17T16:28:04.955Z,28.12
2022-09-17T16:29:22.805Z,28.12
2022-09-17T16:30:39.207Z,22.50
2022-09-17T16:31:57.420Z,22.50
2022-09-17T16:33:13.821Z,22.50
2022-09-17T16:34:30.236Z,28.12
2022-09-17T16:35:46.619Z,22.50
2022-09-17T16:37:03.197Z,22.50
2022-09-17T16:38:21.333Z,22.50
2022-09-17T16:39:39.169Z,16.88
2022-09-17T16:40:57.021Z,22.50